EW2327 Weather Reports


Display with metric or nautical units.
time (UTC)temp
F
wind
direction
speed
MPH
gust
MPH
rain 1hr
in
rain 24hr
in
rain mn
in
humidity
%
barometer
mb
20181015143148 43 309 1.0 9.0 0.18 0.64 0.64 91 1019.9
20181015141542 42 24 2.0 9.0 0.18 0.63 0.63 91 1019.8
20181015140104 43 327 2.0 12.0 0.14 0.56 0.56 91 1019.4
20181015134605 43 327 3.0 9.0 0.12 0.50 0.50 91 1019.8
20181015133040 43 117 2.0 9.0 0.10 0.46 0.46 91 1018.8
20181015131559 43 297 0.0 9.0 0.15 0.45 0.45 91 1018.8
20181015130024 43 336 2.0 11.0 0.17 0.42 0.42 91 1018.8
20181015124555 44 43 3.0 12.0 0.14 0.38 0.38 91 1018.3
20181015123040 44 41 1.0 11.0 0.12 0.36 0.36 91 1017.7
20181015121540 45 107 2.0 8.0 0.07 0.30 0.30 91 1018.0
20181015120035 45 336 2.0 9.0 0.03 0.25 0.25 91 1018.1
20181015114508 45 325 2.0 10.0 0.03 0.24 0.24 91 1017.7
20181015113005 46 5 3.0 17.0 0.03 0.24 0.24 91 1017.8
20181015111744 46 96 1.0 10.0 0.02 0.23 0.23 91 1017.4
20181015110204 47 327 2.0 17.0 0.04 0.22 0.22 91 1017.1
20181015104659 47 5 2.0 9.0 0.05 0.21 0.21 91 1016.4
20181015103140 47 310 1.0 9.0 0.06 0.21 0.21 91 1016.0
20181015101621 47 324 1.0 10.0 0.06 0.21 0.21 91 1016.1
20181015100059 48 234 1.0 11.0 0.03 0.18 0.18 91 1015.7
20181015094623 49 50 1.0 9.0 0.01 0.16 0.16 91 1015.2
20181015093118 49 56 0.0 13.0 0.00 0.15 0.15 91 1015.2
20181015091558 49 325 1.0 14.0 0.02 0.15 0.15 91 1015.3
20181015090104 50 326 3.0 10.0 0.03 0.15 0.15 90 1015.3
20181015084549 51 297 3.0 13.0 0.03 0.15 0.15 90 1015.4
20181015083044 51 26 2.0 9.0 0.03 0.15 0.15 90 1015.3
20181015081550 52 325 1.0 9.0 0.02 0.13 0.13 91 1015.5
20181015080056 52 355 3.0 9.0 0.02 0.12 0.12 90 1015.2
20181015074551 52 320 2.0 9.0 0.02 0.17 0.12 90 1015.4
20181015073027 53 53 2.0 6.0 0.03 0.17 0.12 90 1015.3
20181015071630 54 5 2.0 10.0 0.06 0.16 0.11 89 1015.4
20181015070014 56 340 2.0 9.0 0.09 0.15 0.10 89 1015.0
20181015064533 57 9 3.0 9.0 0.10 0.25 0.10 89 1014.7
20181015063010 59 360 2.0 10.0 0.08 0.23 0.08 88 1014.1
20181015061634 61 319 2.0 10.0 0.05 0.20 0.05 88 1013.8
20181015060132 62 88 1.0 8.0 0.01 0.16 0.01 86 1013.4
20181015054558 65 315 1.0 10.0 0.00 0.17 0.00 84 1013.1
20181015053119 67 319 2.0 8.0 0.00 0.17 0.00 83 1012.7
20181015051603 73 355 3.0 8.0 0.00 0.17 0.00 83 1012.2
20181015050048 75 173 2.0 9.0 0.00 0.17 0.00 88 1011.3
20181015044629 76 126 3.0 8.0 0.00 0.21 0.17 88 1011.3
20181015043119 76 205 2.0 7.0 0.00 0.21 0.17 88 1011.2
20181015041559 76 130 1.0 8.0 0.00 0.21 0.17 88 1011.1
20181015040100 76 146 3.0 8.0 0.00 0.21 0.17 87 1010.9
20181015034553 76 139 2.0 10.0 0.00 0.21 0.17 87 1010.8
20181015033054 77 159 2.0 6.0 0.00 0.21 0.17 86 1010.7
20181015031530 77 121 3.0 7.0 0.00 0.21 0.17 86 1010.3
20181015030047 77 131 2.0 7.0 0.00 0.21 0.17 85 1010.2
20181015024538 78 144 2.0 6.0 0.00 0.21 0.17 85 1010.2
20181015023117 78 136 2.0 8.0 0.00 0.21 0.17 84 1010.1
20181015021530 78 149 1.0 4.0 0.00 0.21 0.17 84 1009.9
20181015020028 79 142 2.0 5.0 0.00 0.21 0.17 83 1009.8
20181015014519 79 136 1.0 5.0 0.00 0.21 0.17 84 1009.6
20181015013022 79 124 1.0 5.0 0.00 0.21 0.17 84 1009.2
20181015011523 79 159 1.0 3.0 0.00 0.21 0.17 84 1009.0
20181015010035 79 146 0.0 3.0 0.00 0.21 0.17 83 1008.7
20181015004530 79 165 1.0 3.0 0.00 0.21 0.17 83 1008.6
20181015003047 79 140 0.0 3.0 0.00 0.21 0.17 82 1008.4
20181015001515 80 124 1.0 5.0 0.00 0.21 0.17 81 1008.2
20181015000019 80 142 1.0 4.0 0.00 0.21 0.17 80 1008.1
20181014234522 81 172 0.0 3.0 0.00 0.21 0.17 79 1008.0
20181014233025 82 138 0.0 4.0 0.00 0.21 0.17 78 1007.8
20181014231516 82 146 2.0 5.0 0.00 0.21 0.17 77 1007.6
20181014230052 83 142 2.0 7.0 0.00 0.21 0.17 77 1007.4
20181014224515 83 159 0.0 6.0 0.00 0.21 0.17 75 1007.2
20181014223030 84 149 2.0 8.0 0.00 0.21 0.17 74 1007.1
20181014221549 84 151 2.0 9.0 0.00 0.21 0.17 74 1007.0
20181014220028 84 177 2.0 9.0 0.00 0.21 0.17 75 1006.8
20181014214518 84 223 3.0 9.0 0.00 0.21 0.17 74 1006.9
20181014213017 85 134 3.0 9.0 0.00 0.21 0.17 75 1007.0
20181014211508 84 163 2.0 8.0 0.00 0.21 0.17 76 1007.0
20181014204524 85 171 2.0 11.0 0.00 0.21 0.17 75 1007.0
20181014203004 85 144 4.0 9.0 0.00 0.21 0.17 75 1007.1
20181014201502 85 114 3.0 9.0 0.00 0.21 0.17 76 1007.1
20181014200113 85 148 2.0 7.0 0.00 0.21 0.17 77 1007.3
20181014194725 84 144 2.0 7.0 0.00 0.21 0.17 77 1007.3
20181014193131 84 138 3.0 7.0 0.00 0.21 0.17 79 1007.4
20181014191616 84 115 4.0 8.0 0.00 0.21 0.17 78 1007.6
20181014190157 85 137 3.0 7.0 0.00 0.21 0.17 79 1007.8
20181014184632 85 157 4.0 13.0 0.00 0.21 0.17 80 1007.9
20181014183118 84 106 3.0 10.0 0.00 0.21 0.17 81 1008.2
20181014181701 83 148 2.0 9.0 0.00 0.21 0.17 82 1008.5
20181014180059 83 160 3.0 7.0 0.00 0.21 0.17 83 1008.6
20181014174547 83 112 4.0 11.0 0.00 0.21 0.17 83 1008.7
20181014173107 82 148 3.0 6.0 0.00 0.21 0.17 84 1008.9
20181014171722 81 189 1.0 8.0 0.00 0.21 0.17 86 1008.9
20181014170118 81 134 3.0 8.0 0.00 0.21 0.17 87 1008.9
20181014164616 80 167 2.0 5.0 0.00 0.21 0.17 87 1009.1
20181014163110 80 216 0.0 7.0 0.00 0.21 0.17 88 1009.2
20181014161608 79 144 1.0 4.0 0.00 0.21 0.17 88 1009.3
20181014160045 79 234 2.0 7.0 0.00 0.21 0.17 89 1009.2
20181014154542 79 173 1.0 8.0 0.00 0.21 0.17 89 1009.3
20181014153137 78 141 2.0 5.0 0.00 0.21 0.17 88 1009.3
20181014151532 77 143 2.0 9.0 0.00 0.21 0.17 87 1009.2
20181014150045 76 129 2.0 7.0 0.00 0.21 0.17 87 1009.3
20181014144523 75 117 2.0 7.0 0.00 0.21 0.17 87 1009.2